createdAt,value
2023-02-14T00:00:59.482Z,12.13
2023-02-14T00:03:26.576Z,14.43
2023-02-14T00:05:53.379Z,16.33
2023-02-14T00:08:20.149Z,12.25
2023-02-14T00:10:47.046Z,12.38
2023-02-14T00:13:16.494Z,13.35
2023-02-14T00:15:43.292Z,12.77
2023-02-14T00:18:11.267Z,15.88
2023-02-14T00:20:37.980Z,13.90
2023-02-14T00:23:04.804Z,15.25
2023-02-14T00:25:33.448Z,13.00
2023-02-14T00:28:00.236Z,14.27
2023-02-14T00:30:28.537Z,13.98
2023-02-14T00:32:55.290Z,14.93
2023-02-14T00:35:22.108Z,15.30
2023-02-14T00:37:48.963Z,12.30
2023-02-14T00:40:16.525Z,13.68
2023-02-14T00:42:43.298Z,14.80
2023-02-14T00:45:10.298Z,11.80
2023-02-14T00:47:37.022Z,12.13
2023-02-14T00:50:05.174Z,12.35
2023-02-14T00:52:32.400Z,11.90
2023-02-14T00:54:59.684Z,13.48
2023-02-14T00:57:26.388Z,10.90
2023-02-14T00:59:53.227Z,11.82
2023-02-14T01:02:20.897Z,13.02
2023-02-14T01:04:47.813Z,13.43
2023-02-14T01:07:14.573Z,12.50
2023-02-14T01:09:42.229Z,12.45
2023-02-14T01:12:08.997Z,11.35
2023-02-14T01:14:35.759Z,13.00
2023-02-14T01:17:02.557Z,11.57
2023-02-14T01:19:29.447Z,13.95
2023-02-14T01:21:56.481Z,13.02
2023-02-14T01:24:23.353Z,11.63
2023-02-14T01:26:50.227Z,11.02
2023-02-14T01:29:17.174Z,12.45
2023-02-14T01:31:45.237Z,11.75
2023-02-14T01:34:13.023Z,10.70
2023-02-14T01:36:40.399Z,11.30
2023-02-14T01:39:14.938Z,9.82
2023-02-14T01:41:44.308Z,11.07
2023-02-14T01:44:17.017Z,9.27
2023-02-14T01:46:47.300Z,9.52
2023-02-14T01:49:30.096Z,9.60
2023-02-14T01:52:08.329Z,8.83
2023-02-14T01:54:38.854Z,9.80
2023-02-14T01:57:10.210Z,9.57
2023-02-14T01:59:46.355Z,8.23
2023-02-14T02:02:13.384Z,10.93
2023-02-14T02:04:44.924Z,11.35
2023-02-14T02:07:19.133Z,10.48
2023-02-14T02:09:51.479Z,10.45
2023-02-14T02:12:18.267Z,10.82
2023-02-14T02:14:45.902Z,12.07
2023-02-14T02:17:21.656Z,9.98
2023-02-14T02:20:00.571Z,9.80
2023-02-14T02:23:14.942Z,11.25
2023-02-14T02:26:20.404Z,10.82
2023-02-14T02:29:13.157Z,9.95
2023-02-14T02:31:51.559Z,10.90
2023-02-14T02:34:21.053Z,11.48
2023-02-14T02:36:55.099Z,9.23
2023-02-14T02:39:38.594Z,9.63
2023-02-14T02:42:23.786Z,9.23
2023-02-14T02:44:50.817Z,9.73
2023-02-14T02:47:46.865Z,11.63
2023-02-14T02:50:52.266Z,9.63
2023-02-14T02:53:40.759Z,11.73
2023-02-14T02:56:49.754Z,9.93
2023-02-14T02:59:34.892Z,11.63
2023-02-14T03:02:15.948Z,10.93
2023-02-14T03:04:55.437Z,11.98
2023-02-14T03:07:36.595Z,11.27
2023-02-14T03:10:24.289Z,10.13
2023-02-14T03:13:12.504Z,10.90
2023-02-14T03:15:57.347Z,11.63
2023-02-14T03:19:16.339Z,12.88
2023-02-14T03:22:20.428Z,9.93
2023-02-14T03:25:08.801Z,10.95
2023-02-14T03:28:09.477Z,11.23
2023-02-14T03:30:52.331Z,9.43
2023-02-14T03:33:36.727Z,11.00
2023-02-14T03:36:23.574Z,10.45
2023-02-14T03:39:00.867Z,9.40
2023-02-14T03:41:34.026Z,9.25
2023-02-14T03:44:07.377Z,10.15
2023-02-14T03:46:37.183Z,9.73
2023-02-14T03:49:08.817Z,9.63
2023-02-14T03:51:36.169Z,11.85
2023-02-14T03:54:06.764Z,10.02
2023-02-14T03:56:48.143Z,10.38
2023-02-14T03:59:20.382Z,11.00
2023-02-14T04:01:56.841Z,10.20
2023-02-14T04:04:27.755Z,9.63
2023-02-14T04:06:55.000Z,10.45
2023-02-14T04:09:21.812Z,9.63
2023-02-14T04:11:50.536Z,10.43
2023-02-14T04:14:18.198Z,14.02
2023-02-14T04:17:03.638Z,9.95
2023-02-14T04:19:30.461Z,10.15
2023-02-14T04:21:57.442Z,10.38
2023-02-14T04:24:24.287Z,12.32
2023-02-14T04:27:05.946Z,9.93
2023-02-14T04:29:32.640Z,11.77
2023-02-14T04:31:59.459Z,10.27
2023-02-14T04:34:26.326Z,12.27
2023-02-14T04:36:53.095Z,8.45
2023-02-14T04:39:19.859Z,11.50
2023-02-14T04:41:46.614Z,9.60
2023-02-14T04:44:13.398Z,10.00
2023-02-14T04:46:40.254Z,13.10
2023-02-14T04:49:07.092Z,11.13
2023-02-14T04:51:33.814Z,11.68
2023-02-14T04:54:00.561Z,12.88
2023-02-14T04:56:27.353Z,12.95
2023-02-14T04:58:55.089Z,11.02
2023-02-14T05:01:22.145Z,10.65
2023-02-14T05:04:03.787Z,12.73
2023-02-14T05:06:30.610Z,11.35
2023-02-14T05:08:57.421Z,11.18
2023-02-14T05:11:24.475Z,14.35
2023-02-14T05:13:51.282Z,10.55
2023-02-14T05:16:18.125Z,12.55
2023-02-14T05:18:45.308Z,10.00
2023-02-14T05:21:12.182Z,10.45
2023-02-14T05:23:39.554Z,12.30
2023-02-14T05:26:06.868Z,12.50
2023-02-14T05:28:33.705Z,12.88
2023-02-14T05:31:01.111Z,13.48
2023-02-14T05:33:28.310Z,11.43
2023-02-14T05:35:55.138Z,12.75
2023-02-14T05:38:21.912Z,11.77
2023-02-14T05:40:48.603Z,12.35
2023-02-14T05:43:15.424Z,12.80
2023-02-14T05:45:42.221Z,12.10
2023-02-14T05:48:09.054Z,13.18
2023-02-14T05:50:35.820Z,14.15
2023-02-14T05:53:02.853Z,12.45
2023-02-14T05:55:29.675Z,15.15
2023-02-14T05:57:56.830Z,12.50
2023-02-14T06:00:24.938Z,13.65
2023-02-14T06:02:51.880Z,15.77
2023-02-14T06:05:20.207Z,11.80
2023-02-14T06:07:52.690Z,11.80
2023-02-14T06:10:21.356Z,14.23
2023-02-14T06:12:53.547Z,14.90
2023-02-14T06:15:20.472Z,14.00
2023-02-14T06:17:57.708Z,13.57
2023-02-14T06:20:25.294Z,15.18
2023-02-14T06:22:52.816Z,12.00
2023-02-14T06:25:20.459Z,12.32
2023-02-14T06:27:49.259Z,16.13
2023-02-14T06:30:17.702Z,15.40
2023-02-14T06:32:44.724Z,15.07
2023-02-14T06:35:11.605Z,15.07
2023-02-14T06:37:42.319Z,12.40
2023-02-14T06:40:10.232Z,13.65
2023-02-14T06:42:37.528Z,12.00
2023-02-14T06:45:05.043Z,13.27
2023-02-14T06:47:34.619Z,13.13
2023-02-14T06:50:01.816Z,13.80
2023-02-14T06:52:31.812Z,15.15
2023-02-14T06:54:58.698Z,18.25
2023-02-14T06:57:25.641Z,15.85
2023-02-14T06:59:52.385Z,19.02
2023-02-14T07:02:19.612Z,16.35
2023-02-14T07:04:46.528Z,18.60
2023-02-14T07:07:13.382Z,17.30
2023-02-14T07:09:40.153Z,17.88
2023-02-14T07:12:07.263Z,18.02
2023-02-14T07:14:34.058Z,19.13
2023-02-14T07:17:01.023Z,20.98
2023-02-14T07:19:27.847Z,18.08
2023-02-14T07:21:54.686Z,21.23
2023-02-14T07:24:21.464Z,19.35
2023-02-14T07:26:48.203Z,18.95
2023-02-14T07:29:15.010Z,19.10
2023-02-14T07:31:41.894Z,20.55
2023-02-14T07:34:08.688Z,18.90
2023-02-14T07:36:37.186Z,22.83
2023-02-14T07:39:04.007Z,22.27
2023-02-14T07:41:30.837Z,23.83
2023-02-14T07:43:57.627Z,19.45
2023-02-14T07:46:24.561Z,21.90
2023-02-14T07:48:52.112Z,71.38
2023-02-14T07:51:19.006Z,22.25
2023-02-14T07:53:45.996Z,25.25
2023-02-14T07:56:12.811Z,21.70
2023-02-14T07:58:39.728Z,21.13
2023-02-14T08:01:06.643Z,23.20
2023-02-14T08:03:33.491Z,21.70
2023-02-14T08:06:00.361Z,23.15
2023-02-14T08:08:30.140Z,22.17
2023-02-14T08:10:57.957Z,22.88
2023-02-14T08:13:25.060Z,26.10
2023-02-14T08:16:11.809Z,21.13
2023-02-14T08:18:41.469Z,25.08
2023-02-14T08:21:10.214Z,21.95
2023-02-14T08:23:37.904Z,23.90
2023-02-14T08:26:05.255Z,31.92
2023-02-14T08:28:33.235Z,22.77
2023-02-14T08:31:00.899Z,20.85
2023-02-14T08:33:28.261Z,21.05
2023-02-14T08:35:55.161Z,23.92
2023-02-14T08:38:22.286Z,21.48
2023-02-14T08:40:49.212Z,20.92
2023-02-14T08:43:16.274Z,20.48
2023-02-14T08:45:43.258Z,21.48
2023-02-14T08:48:12.219Z,20.33
2023-02-14T08:50:40.042Z,20.55
2023-02-14T08:53:08.521Z,24.25
2023-02-14T08:55:36.054Z,19.48
2023-02-14T08:58:04.000Z,25.05
2023-02-14T09:00:31.642Z,21.70
2023-02-14T09:02:58.816Z,20.58
2023-02-14T09:05:26.615Z,21.35
2023-02-14T09:07:56.573Z,22.95
2023-02-14T09:10:24.533Z,28.25
2023-02-14T09:12:51.866Z,22.13
2023-02-14T09:15:18.857Z,22.77
2023-02-14T09:17:45.782Z,21.02
2023-02-14T09:20:14.923Z,20.17
2023-02-14T09:22:41.834Z,24.20
2023-02-14T09:25:08.950Z,20.88
2023-02-14T09:27:36.095Z,21.05
2023-02-14T09:30:03.212Z,19.92
2023-02-14T09:32:30.537Z,22.40
2023-02-14T09:34:57.344Z,21.27
2023-02-14T09:37:42.792Z,19.33
2023-02-14T09:40:13.076Z,21.38
2023-02-14T09:43:02.078Z,21.70
2023-02-14T09:45:32.262Z,23.10
2023-02-14T09:48:34.369Z,21.95
2023-02-14T09:51:08.827Z,20.48
2023-02-14T09:53:49.457Z,21.17
2023-02-14T09:56:42.856Z,22.00
2023-02-14T10:00:00.242Z,18.65
2023-02-14T10:02:37.957Z,19.17
2023-02-14T10:05:15.617Z,20.02
2023-02-14T10:08:03.986Z,22.17
2023-02-14T10:10:42.272Z,18.85
2023-02-14T10:13:37.023Z,21.55
2023-02-14T10:16:12.449Z,20.00
2023-02-14T10:18:57.964Z,20.13
2023-02-14T10:21:47.116Z,18.45
2023-02-14T10:24:20.070Z,21.33
2023-02-14T10:26:49.412Z,19.50
2023-02-14T10:29:19.120Z,20.73
2023-02-14T10:31:57.752Z,20.80
2023-02-14T10:34:50.475Z,23.40
2023-02-14T10:37:37.611Z,19.70
2023-02-14T10:40:20.600Z,20.95
2023-02-14T10:42:50.470Z,20.45
2023-02-14T10:45:26.250Z,19.42
2023-02-14T10:48:29.906Z,19.17
2023-02-14T10:51:03.978Z,20.05
2023-02-14T10:53:48.827Z,19.70
2023-02-14T10:56:21.802Z,19.23
2023-02-14T10:58:51.289Z,19.40
2023-02-14T11:01:19.502Z,21.30
2023-02-14T11:04:08.768Z,22.67
2023-02-14T11:06:35.599Z,21.45
2023-02-14T11:09:03.266Z,20.05
2023-02-14T11:11:30.054Z,17.70
2023-02-14T11:13:56.961Z,21.23
2023-02-14T11:16:37.138Z,21.88
2023-02-14T11:19:19.202Z,24.35
2023-02-14T11:21:47.588Z,20.33
2023-02-14T11:24:18.440Z,20.67
2023-02-14T11:26:50.125Z,21.80
2023-02-14T11:29:26.443Z,23.77
2023-02-14T11:31:53.592Z,24.02
2023-02-14T11:34:29.294Z,22.40
2023-02-14T11:36:56.149Z,24.05
2023-02-14T11:39:29.881Z,25.27
2023-02-14T11:41:59.964Z,22.67
2023-02-14T11:44:29.887Z,22.88
2023-02-14T11:47:15.833Z,22.55
2023-02-14T11:50:06.120Z,23.60
2023-02-14T11:52:37.217Z,22.73
2023-02-14T11:55:04.918Z,25.27
2023-02-14T11:57:37.875Z,28.15
2023-02-14T12:00:17.433Z,27.17
2023-02-14T12:02:49.821Z,25.73
2023-02-14T12:05:30.527Z,27.88
2023-02-14T12:08:08.175Z,26.90
2023-02-14T12:10:40.267Z,28.60
2023-02-14T12:13:10.081Z,20.52
2023-02-14T12:15:56.989Z,24.35
2023-02-14T12:18:47.165Z,30.60
2023-02-14T12:21:35.282Z,28.02
2023-02-14T12:24:37.047Z,23.38
2023-02-14T12:27:07.320Z,27.98
2023-02-14T12:29:34.231Z,23.70
2023-02-14T12:32:12.018Z,22.10
2023-02-14T12:34:38.848Z,25.20
2023-02-14T12:37:19.071Z,23.42
2023-02-14T12:39:47.856Z,23.50
2023-02-14T12:42:46.392Z,22.27
2023-02-14T12:45:50.962Z,20.52
2023-02-14T12:48:37.226Z,23.40
2023-02-14T12:51:04.036Z,23.67
2023-02-14T12:53:49.464Z,24.60
2023-02-14T12:56:34.005Z,25.13
2023-02-14T12:59:52.701Z,24.17
2023-02-14T13:02:28.804Z,22.20
2023-02-14T13:05:22.277Z,23.40
2023-02-14T13:08:00.544Z,24.50
2023-02-14T13:11:08.550Z,22.88
2023-02-14T13:13:56.229Z,24.17
2023-02-14T13:16:50.416Z,21.30
2023-02-14T13:19:46.456Z,20.60
2023-02-14T13:22:20.756Z,19.90
2023-02-14T13:24:51.255Z,19.10
2023-02-14T13:27:30.265Z,21.23
2023-02-14T13:30:02.717Z,24.08
2023-02-14T13:32:40.173Z,18.48
2023-02-14T13:35:08.471Z,16.52
2023-02-14T13:37:37.149Z,17.33
2023-02-14T13:40:16.638Z,19.17
2023-02-14T13:42:52.369Z,18.92
2023-02-14T13:45:40.227Z,18.02
2023-02-14T13:48:29.276Z,18.52
2023-02-14T13:51:02.207Z,17.95
2023-02-14T13:53:47.189Z,16.48
2023-02-14T13:56:16.960Z,19.30
2023-02-14T13:58:52.405Z,17.65
2023-02-14T14:01:50.657Z,19.88
2023-02-14T14:04:30.365Z,21.17
2023-02-14T14:07:03.630Z,20.65
2023-02-14T14:09:42.711Z,19.35
2023-02-14T14:12:27.626Z,17.58
2023-02-14T14:15:06.573Z,19.27
2023-02-14T14:17:38.057Z,18.45
2023-02-14T14:20:16.849Z,18.50
2023-02-14T14:22:58.597Z,19.58
2023-02-14T14:25:42.848Z,17.30
2023-02-14T14:28:18.396Z,18.13
2023-02-14T14:30:45.963Z,19.75
2023-02-14T14:33:25.500Z,18.80
2023-02-14T14:36:02.389Z,19.48
2023-02-14T14:38:30.713Z,19.63
2023-02-14T14:40:58.109Z,17.92
2023-02-14T14:43:36.803Z,20.70
2023-02-14T14:46:07.731Z,20.15
2023-02-14T14:49:05.883Z,19.13
2023-02-14T14:51:35.732Z,19.30
2023-02-14T14:54:07.061Z,22.00
2023-02-14T14:56:36.926Z,20.27
2023-02-14T14:59:22.584Z,22.63
2023-02-14T15:01:54.572Z,20.67
2023-02-14T15:04:35.331Z,18.75
2023-02-14T15:07:20.120Z,21.10
2023-02-14T15:09:47.143Z,20.00
2023-02-14T15:12:38.375Z,21.15
2023-02-14T15:15:09.202Z,20.92
2023-02-14T15:17:37.862Z,19.55
2023-02-14T15:20:18.902Z,22.27
2023-02-14T15:22:48.339Z,19.88
2023-02-14T15:25:25.916Z,20.23
2023-02-14T15:27:53.235Z,20.77
2023-02-14T15:30:20.180Z,19.25
2023-02-14T15:32:51.114Z,21.70
2023-02-14T15:35:22.876Z,18.20
2023-02-14T15:37:52.065Z,22.40
2023-02-14T15:40:22.694Z,20.08
2023-02-14T15:42:56.101Z,20.27
2023-02-14T15:47:57.128Z,20.08
2023-02-14T15:50:45.819Z,21.15
2023-02-14T15:53:21.447Z,20.83
2023-02-14T15:55:50.558Z,24.65
2023-02-14T15:58:24.200Z,21.90
2023-02-14T16:00:53.427Z,21.20
2023-02-14T16:03:26.971Z,20.60
2023-02-14T16:05:57.613Z,21.27
2023-02-14T16:08:34.946Z,23.50
2023-02-14T16:11:27.430Z,18.67
2023-02-14T16:13:54.382Z,20.42
2023-02-14T16:16:21.797Z,20.25
2023-02-14T16:18:54.979Z,23.63
2023-02-14T16:21:27.645Z,24.08
2023-02-14T16:24:10.919Z,22.73
2023-02-14T16:26:45.979Z,22.88
2023-02-14T16:29:17.494Z,22.10
2023-02-14T16:34:38.080Z,22.85
2023-02-14T16:37:18.432Z,23.65
2023-02-14T16:39:45.504Z,25.98
2023-02-14T16:42:21.375Z,21.08
2023-02-14T16:44:48.620Z,21.27
2023-02-14T16:47:18.341Z,23.63
2023-02-14T16:49:45.463Z,25.20
2023-02-14T16:52:23.887Z,22.80
2023-02-14T16:54:51.197Z,21.40
2023-02-14T16:57:37.413Z,24.17
2023-02-14T17:00:06.588Z,22.15
2023-02-14T17:02:35.028Z,22.95
2023-02-14T17:05:02.117Z,24.23
2023-02-14T17:07:32.954Z,24.27
2023-02-14T17:10:11.998Z,23.83
2023-02-14T17:12:44.137Z,21.25
2023-02-14T17:15:15.553Z,25.92
2023-02-14T17:17:43.213Z,26.92
2023-02-14T17:20:10.607Z,23.27
2023-02-14T17:22:37.886Z,22.27
2023-02-14T17:25:06.067Z,19.95
2023-02-14T17:27:32.933Z,21.08
2023-02-14T17:29:59.834Z,20.05
2023-02-14T17:32:26.733Z,19.60
2023-02-14T17:34:53.941Z,17.67
2023-02-14T17:37:20.779Z,19.08
2023-02-14T17:39:47.724Z,18.00
2023-02-14T17:42:14.595Z,17.60
2023-02-14T17:44:41.458Z,15.65
2023-02-14T17:47:08.465Z,14.95
2023-02-14T17:49:35.523Z,14.32
2023-02-14T17:52:02.454Z,15.07
2023-02-14T17:54:29.205Z,12.55
2023-02-14T17:56:55.948Z,14.07
2023-02-14T17:59:22.809Z,13.38
2023-02-14T18:01:49.688Z,14.23
2023-02-14T18:04:16.559Z,12.15
2023-02-14T18:06:43.450Z,12.05
2023-02-14T18:09:10.268Z,10.75
2023-02-14T18:11:40.645Z,12.73
2023-02-14T18:14:07.428Z,20.33
2023-02-14T18:16:34.412Z,10.30
2023-02-14T18:19:05.540Z,10.73
2023-02-14T18:21:40.012Z,10.00
2023-02-14T18:24:07.653Z,14.95
2023-02-14T18:26:36.147Z,13.05
2023-02-14T18:29:06.684Z,12.13
2023-02-14T18:31:35.697Z,13.60
2023-02-14T18:34:02.838Z,14.77
2023-02-14T18:36:31.828Z,14.50
2023-02-14T18:38:59.220Z,9.85
2023-02-14T18:41:27.108Z,12.35
2023-02-14T18:43:54.139Z,10.63
2023-02-14T18:46:24.234Z,15.90
2023-02-14T18:48:51.773Z,12.57
2023-02-14T18:51:24.120Z,12.77
2023-02-14T18:53:54.928Z,11.85
2023-02-14T18:56:24.160Z,14.15
2023-02-14T18:58:56.291Z,11.48
2023-02-14T19:01:29.209Z,10.15
2023-02-14T19:03:56.836Z,12.07
2023-02-14T19:06:23.783Z,15.38
2023-02-14T19:08:51.194Z,12.98
2023-02-14T19:11:21.559Z,10.00
2023-02-14T19:13:53.463Z,14.13
2023-02-14T19:16:24.041Z,13.98
2023-02-14T19:18:53.390Z,13.43
2023-02-14T19:21:26.182Z,12.60
2023-02-14T19:23:56.136Z,9.30
2023-02-14T19:26:32.877Z,14.88
2023-02-14T19:29:03.445Z,14.18
2023-02-14T19:31:36.376Z,14.60
2023-02-14T19:34:04.705Z,14.23
2023-02-14T19:36:32.166Z,15.85
2023-02-14T19:38:58.989Z,16.50
2023-02-14T19:41:29.769Z,15.68
2023-02-14T19:43:58.099Z,12.23
2023-02-14T19:46:25.703Z,20.25
2023-02-14T19:48:52.544Z,14.80
2023-02-14T19:51:28.959Z,14.02
2023-02-14T19:53:57.176Z,18.42
2023-02-14T19:56:27.366Z,14.48
2023-02-14T19:58:56.124Z,16.90
2023-02-14T20:01:42.103Z,14.55
2023-02-14T20:04:13.820Z,14.30
2023-02-14T20:06:41.354Z,15.23
2023-02-14T20:09:09.337Z,15.07
2023-02-14T20:11:50.860Z,14.60
2023-02-14T20:14:22.697Z,14.85
2023-02-14T20:16:50.982Z,13.25
2023-02-14T20:19:21.020Z,13.82
2023-02-14T20:21:49.996Z,17.70
2023-02-14T20:24:22.406Z,14.98
2023-02-14T20:26:50.660Z,15.47
2023-02-14T20:29:18.441Z,17.95
2023-02-14T20:31:53.764Z,19.38
2023-02-14T20:34:21.433Z,16.30
2023-02-14T20:36:55.981Z,16.00
2023-02-14T20:39:27.592Z,16.52
2023-02-14T20:41:54.419Z,15.88
2023-02-14T20:44:21.825Z,14.85
2023-02-14T20:46:53.938Z,18.35
2023-02-14T20:49:21.957Z,17.08
2023-02-14T20:51:50.543Z,16.77
2023-02-14T20:54:18.751Z,17.40
2023-02-14T20:56:46.154Z,21.63
2023-02-14T20:59:13.713Z,15.57
2023-02-14T21:01:40.952Z,18.25
2023-02-14T21:04:07.762Z,16.48
2023-02-14T21:06:39.823Z,17.55
2023-02-14T21:09:06.998Z,19.17
2023-02-14T21:11:33.772Z,19.77
2023-02-14T21:14:02.080Z,18.20
2023-02-14T21:16:30.287Z,20.48
2023-02-14T21:18:59.304Z,15.73
2023-02-14T21:21:37.655Z,16.73
2023-02-14T21:24:10.842Z,15.50
2023-02-14T21:26:38.294Z,15.80
2023-02-14T21:29:06.066Z,17.85
2023-02-14T21:31:33.635Z,18.45
2023-02-14T21:34:02.051Z,20.45
2023-02-14T21:36:35.632Z,16.67
2023-02-14T21:39:03.815Z,18.88
2023-02-14T21:41:31.507Z,21.38
2023-02-14T21:43:59.723Z,18.40
2023-02-14T21:46:32.260Z,17.42
2023-02-14T21:49:19.743Z,18.08
2023-02-14T21:51:47.761Z,19.50
2023-02-14T21:54:15.447Z,16.75
2023-02-14T21:56:42.716Z,17.45
2023-02-14T21:59:10.010Z,19.17
2023-02-14T22:01:38.869Z,21.65
2023-02-14T22:04:09.184Z,20.40
2023-02-14T22:06:38.797Z,19.10
2023-02-14T22:09:07.005Z,20.35
2023-02-14T22:11:34.388Z,20.05
2023-02-14T22:14:01.230Z,22.30
2023-02-14T22:16:28.529Z,18.15
2023-02-14T22:18:55.538Z,21.08
2023-02-14T22:21:24.977Z,20.30
2023-02-14T22:23:53.390Z,22.17
2023-02-14T22:26:29.222Z,23.83
2023-02-14T22:28:59.225Z,23.25
2023-02-14T22:31:30.744Z,22.42
2023-02-14T22:33:57.822Z,23.38
2023-02-14T22:36:25.239Z,23.10
2023-02-14T22:38:52.121Z,19.08
2023-02-14T22:41:21.313Z,22.20
2023-02-14T22:43:48.429Z,19.58
2023-02-14T22:46:23.567Z,23.88
2023-02-14T22:48:51.384Z,22.02
2023-02-14T22:51:22.522Z,24.85
2023-02-14T22:53:51.038Z,21.45
2023-02-14T22:56:21.347Z,21.23
2023-02-14T22:58:56.794Z,19.85
2023-02-14T23:01:24.524Z,18.02
2023-02-14T23:03:55.130Z,20.33
2023-02-14T23:06:22.694Z,19.73
2023-02-14T23:08:49.604Z,18.90
2023-02-14T23:11:22.846Z,19.73
2023-02-14T23:14:08.709Z,21.92
2023-02-14T23:16:54.395Z,21.35
2023-02-14T23:19:45.464Z,19.55
2023-02-14T23:22:15.611Z,20.17
2023-02-14T23:24:42.897Z,18.10
2023-02-14T23:27:10.225Z,23.00
2023-02-14T23:29:37.956Z,24.00
2023-02-14T23:32:06.541Z,19.98
2023-02-14T23:34:35.780Z,23.90
2023-02-14T23:37:03.269Z,20.35
2023-02-14T23:39:35.844Z,22.70
2023-02-14T23:42:08.065Z,21.63
2023-02-14T23:44:36.282Z,25.20
2023-02-14T23:47:06.254Z,23.33
2023-02-14T23:49:34.529Z,22.38
2023-02-14T23:52:02.252Z,22.00
2023-02-14T23:54:29.109Z,25.45
2023-02-14T23:56:57.493Z,21.77
2023-02-14T23:59:24.653Z,23.75
